Terminal Aerodrome Forecast
Issued by NWS

Home | Current Version | Previous Version | Text Only | Print | Product List | Glossary On
Versions: 1 2 3 4 5 6 7 8 9 10 11 12 13 14
000
FTUS45 KVEF 192300
TAFVGT
TAF
KVGT 192320Z 2000/2024 15006KT P6SM SCT100 BKN250
     FM200300 24007KT P6SM SCT250
     FM200600 31006KT P6SM SCT250
     FM201200 VRB04KT P6SM SKC
     FM201900 15007KT P6SM FEW110=

USA.gov is the U.S. government's official web portal to all federal, state and local government web resources and services.